Kingsville, Texas
Current Conditions -  °F | °C
As of 9:56 PM on Friday 24 Oct 2014 (Local Time) from KNQI Reporting Station
Clear Clear  
Wind Chill: 67°   Ceiling: Unl
Heat Index: 67°   Visibility: 10mi
Dew Point: 62°   Wind: 5mph
Humidity: 84%   Direction: 170°S
Pressure: 30.13"   Gusts: NA
Location:  27.52°N, 97.85°W
Report Text: KNQI 250256Z AUTO 17004KT 10SM CLR 19/17 A3013 RMK AO2 SLP199 T01940167 51016
Loading
Personal Weather Stations






























Interactive Weather Map New forecast layout! Learn more

10-Day Weather Forecast

Advertisements
Track Severe Weather on mobile